createdAt,value
2023-02-19T00:01:47.586Z,34.63
2023-02-19T00:04:24.624Z,32.05
2023-02-19T00:06:51.745Z,27.23
2023-02-19T00:09:20.086Z,30.77
2023-02-19T00:11:48.084Z,29.08
2023-02-19T00:14:20.309Z,38.20
2023-02-19T00:16:48.705Z,31.23
2023-02-19T00:19:20.491Z,28.88
2023-02-19T00:21:51.439Z,29.13
2023-02-19T00:24:19.105Z,28.88
2023-02-19T00:26:47.203Z,29.25
2023-02-19T00:29:19.460Z,28.45
2023-02-19T00:31:47.385Z,19.77
2023-02-19T00:34:14.646Z,20.17
2023-02-19T00:36:43.032Z,22.13
2023-02-19T00:39:16.029Z,30.50
2023-02-19T00:41:44.178Z,15.98
2023-02-19T00:44:13.230Z,20.83
2023-02-19T00:46:48.608Z,19.85
2023-02-19T00:49:22.465Z,20.67
2023-02-19T00:51:52.620Z,18.85
2023-02-19T00:54:22.397Z,21.70
2023-02-19T00:56:50.267Z,23.27
2023-02-19T00:59:17.814Z,20.33
2023-02-19T01:01:45.352Z,22.13
2023-02-19T01:04:13.470Z,22.08
2023-02-19T01:06:41.319Z,24.38
2023-02-19T01:09:08.521Z,25.05
2023-02-19T01:11:35.979Z,25.52
2023-02-19T01:14:03.864Z,25.08
2023-02-19T01:16:31.086Z,23.17
2023-02-19T01:18:58.930Z,26.95
2023-02-19T01:21:29.407Z,24.17
2023-02-19T01:23:58.301Z,28.20
2023-02-19T01:26:31.831Z,23.10
2023-02-19T01:29:02.304Z,24.48
2023-02-19T01:31:30.440Z,23.63
2023-02-19T01:34:01.268Z,20.23
2023-02-19T01:36:32.614Z,19.90
2023-02-19T01:39:04.040Z,23.60
2023-02-19T01:41:34.962Z,20.65
2023-02-19T01:44:12.161Z,27.83
2023-02-19T01:46:44.828Z,19.63
2023-02-19T01:49:30.286Z,24.83
2023-02-19T01:52:34.278Z,23.38
2023-02-19T01:55:04.963Z,19.13
2023-02-19T01:57:44.212Z,22.80
2023-02-19T02:00:15.240Z,21.48
2023-02-19T02:02:48.655Z,20.90
2023-02-19T02:05:36.085Z,18.10
2023-02-19T02:08:23.054Z,21.67
2023-02-19T02:10:52.663Z,16.85
2023-02-19T02:13:20.553Z,23.80
2023-02-19T02:16:24.458Z,21.42
2023-02-19T02:19:25.560Z,18.67
2023-02-19T02:22:07.669Z,17.73
2023-02-19T02:25:11.602Z,20.70
2023-02-19T02:27:53.601Z,20.98
2023-02-19T02:30:37.874Z,25.65
2023-02-19T02:33:26.428Z,18.83
2023-02-19T02:36:05.748Z,17.25
2023-02-19T02:38:38.778Z,19.40
2023-02-19T02:41:06.985Z,24.50
2023-02-19T02:43:34.369Z,19.15
2023-02-19T02:46:01.502Z,21.75
2023-02-19T02:48:46.401Z,27.30
2023-02-19T02:51:27.367Z,20.15
2023-02-19T02:54:30.640Z,23.92
2023-02-19T02:57:01.060Z,22.70
2023-02-19T02:59:39.285Z,18.33
2023-02-19T03:02:18.614Z,19.90
2023-02-19T03:05:23.227Z,23.67
2023-02-19T03:08:18.656Z,17.23
2023-02-19T03:11:24.146Z,20.00
2023-02-19T03:17:04.404Z,22.38
2023-02-19T03:19:42.212Z,21.77
2023-02-19T03:22:21.327Z,21.55
2023-02-19T03:25:19.239Z,23.92
2023-02-19T03:27:49.579Z,20.13
2023-02-19T03:30:23.446Z,20.77
2023-02-19T03:33:22.265Z,26.58
2023-02-19T03:36:05.325Z,20.30
2023-02-19T03:41:31.132Z,21.00
2023-02-19T03:44:17.792Z,20.02
2023-02-19T03:47:24.263Z,24.70
2023-02-19T03:50:18.257Z,22.13
2023-02-19T03:53:11.761Z,22.85
2023-02-19T03:56:11.691Z,24.55
2023-02-19T03:58:58.919Z,20.10
2023-02-19T04:01:39.533Z,20.85
2023-02-19T04:04:16.726Z,17.25
2023-02-19T04:06:53.377Z,23.98
2023-02-19T04:09:25.145Z,17.63
2023-02-19T04:12:00.114Z,18.20
2023-02-19T04:14:46.201Z,16.05
2023-02-19T04:17:22.132Z,20.02
2023-02-19T04:19:53.006Z,19.67
2023-02-19T04:22:22.739Z,19.95
2023-02-19T04:24:53.558Z,18.75
2023-02-19T04:27:20.512Z,19.50
2023-02-19T04:29:47.777Z,21.50
2023-02-19T04:32:14.951Z,20.27
2023-02-19T04:34:41.896Z,15.82
2023-02-19T04:37:08.937Z,21.52
2023-02-19T04:39:36.308Z,13.70
2023-02-19T04:42:03.974Z,17.83
2023-02-19T04:44:30.946Z,14.50
2023-02-19T04:46:57.866Z,17.48
2023-02-19T04:49:24.766Z,19.40
2023-02-19T04:51:51.735Z,19.48
2023-02-19T04:54:18.697Z,21.98
2023-02-19T04:56:45.673Z,19.60
2023-02-19T04:59:12.851Z,27.95
2023-02-19T05:01:39.875Z,21.33
2023-02-19T05:04:06.940Z,21.50
2023-02-19T05:06:34.127Z,20.33
2023-02-19T05:09:01.069Z,28.85
2023-02-19T05:11:28.088Z,18.83
2023-02-19T05:13:56.245Z,14.88
2023-02-19T05:16:23.175Z,18.00
2023-02-19T05:18:50.155Z,14.98
2023-02-19T05:21:17.142Z,21.85
2023-02-19T05:23:44.544Z,15.75
2023-02-19T05:26:19.770Z,16.00
2023-02-19T05:28:50.944Z,13.85
2023-02-19T05:31:18.984Z,17.45
2023-02-19T05:33:51.082Z,17.40
2023-02-19T05:36:21.296Z,14.98
2023-02-19T05:38:52.670Z,13.65
2023-02-19T05:41:24.179Z,19.58
2023-02-19T05:43:52.053Z,22.45
2023-02-19T05:46:22.993Z,16.75
2023-02-19T05:48:52.730Z,17.80
2023-02-19T05:51:24.471Z,21.15
2023-02-19T05:53:52.478Z,21.73
2023-02-19T05:56:36.751Z,20.45
2023-02-19T05:59:15.916Z,19.13
2023-02-19T06:01:44.118Z,21.20
2023-02-19T06:04:12.527Z,19.77
2023-02-19T06:06:40.670Z,22.33
2023-02-19T06:09:09.634Z,20.77
2023-02-19T06:11:37.790Z,28.65
2023-02-19T06:14:06.241Z,21.55
2023-02-19T06:16:34.440Z,22.45
2023-02-19T06:19:04.976Z,22.50
2023-02-19T06:21:32.224Z,16.95
2023-02-19T06:23:59.234Z,20.38
2023-02-19T06:26:26.589Z,20.38
2023-02-19T06:28:54.684Z,21.92
2023-02-19T06:31:23.467Z,20.40
2023-02-19T06:33:50.900Z,17.98
2023-02-19T06:36:22.280Z,20.00
2023-02-19T06:38:49.499Z,17.13
2023-02-19T06:41:19.521Z,19.00
2023-02-19T06:43:46.829Z,14.60
2023-02-19T06:46:14.430Z,17.48
2023-02-19T06:48:45.596Z,17.25
2023-02-19T06:51:16.161Z,18.55
2023-02-19T06:53:43.271Z,15.02
2023-02-19T06:56:27.315Z,23.70
2023-02-19T06:59:03.276Z,19.00
2023-02-19T07:01:36.926Z,17.35
2023-02-19T07:04:06.877Z,21.45
2023-02-19T07:06:35.668Z,24.98
2023-02-19T07:09:05.192Z,19.95
2023-02-19T07:11:35.240Z,24.58
2023-02-19T07:14:04.872Z,20.20
2023-02-19T07:16:34.637Z,20.50
2023-02-19T07:19:01.766Z,19.33
2023-02-19T07:21:37.975Z,15.70
2023-02-19T07:24:05.943Z,19.88
2023-02-19T07:26:33.035Z,18.27
2023-02-19T07:29:00.926Z,20.00
2023-02-19T07:31:28.782Z,19.88
2023-02-19T07:33:55.990Z,18.90
2023-02-19T07:36:25.501Z,19.52
2023-02-19T07:38:57.322Z,22.67
2023-02-19T07:41:26.248Z,15.70
2023-02-19T07:43:56.881Z,18.13
2023-02-19T07:46:24.662Z,17.80
2023-02-19T07:48:51.601Z,18.02
2023-02-19T07:51:20.358Z,21.35
2023-02-19T07:53:52.366Z,16.85
2023-02-19T07:56:20.632Z,16.90
2023-02-19T07:58:47.842Z,17.52
2023-02-19T08:01:40.560Z,17.48
2023-02-19T08:04:08.166Z,12.65
2023-02-19T08:06:35.213Z,15.85
2023-02-19T08:09:02.186Z,7.88
2023-02-19T08:11:47.750Z,8.25
2023-02-19T08:14:14.724Z,10.00
2023-02-19T08:16:52.430Z,9.68
2023-02-19T08:19:20.995Z,8.27
2023-02-19T08:21:48.181Z,31.30
2023-02-19T08:24:15.184Z,9.40
2023-02-19T08:26:42.129Z,10.95
2023-02-19T08:29:09.143Z,12.32
2023-02-19T08:31:42.235Z,10.38
2023-02-19T08:34:09.347Z,17.83
2023-02-19T08:36:36.494Z,13.55
2023-02-19T08:39:03.693Z,9.52
2023-02-19T08:41:30.727Z,14.07
2023-02-19T08:43:57.710Z,14.55
2023-02-19T08:46:24.809Z,12.10
2023-02-19T08:48:52.193Z,14.63
2023-02-19T08:51:19.174Z,12.00
2023-02-19T08:53:46.824Z,12.02
2023-02-19T08:56:17.394Z,12.35
2023-02-19T08:58:45.201Z,9.68
2023-02-19T09:01:18.594Z,13.85
2023-02-19T09:03:46.041Z,9.67
2023-02-19T09:06:17.408Z,10.10
2023-02-19T09:08:44.762Z,10.35
2023-02-19T09:11:12.671Z,10.57
2023-02-19T09:13:39.842Z,14.38
2023-02-19T09:16:07.271Z,12.13
2023-02-19T09:18:34.707Z,12.73
2023-02-19T09:21:05.038Z,11.55
2023-02-19T09:23:39.604Z,13.10
2023-02-19T09:26:09.906Z,10.18
2023-02-19T09:28:39.654Z,7.88
2023-02-19T09:31:14.557Z,7.30
2023-02-19T09:33:47.296Z,6.68
2023-02-19T09:36:18.737Z,7.05
2023-02-19T09:38:45.892Z,9.77
2023-02-19T09:41:31.975Z,6.72
2023-02-19T09:44:06.184Z,9.38
2023-02-19T09:46:52.822Z,11.45
2023-02-19T09:49:31.875Z,6.90
2023-02-19T09:52:08.003Z,7.30
2023-02-19T09:54:38.080Z,11.43
2023-02-19T09:57:13.673Z,10.68
2023-02-19T09:59:52.116Z,10.98
2023-02-19T10:02:25.697Z,7.97
2023-02-19T10:04:53.727Z,8.40
2023-02-19T10:07:51.079Z,10.18
2023-02-19T10:10:29.475Z,9.27
2023-02-19T10:13:15.218Z,7.07
2023-02-19T10:16:00.680Z,6.18
2023-02-19T10:18:37.206Z,8.73
2023-02-19T10:21:05.503Z,7.28
2023-02-19T10:23:33.370Z,6.55
2023-02-19T10:26:00.757Z,6.97
2023-02-19T10:28:34.591Z,6.75
2023-02-19T10:31:20.391Z,7.82
2023-02-19T10:33:54.201Z,8.32
2023-02-19T10:36:36.191Z,9.63
2023-02-19T10:39:23.159Z,5.63
2023-02-19T10:41:54.448Z,7.93
2023-02-19T10:44:31.990Z,7.05
2023-02-19T10:47:01.151Z,5.50
2023-02-19T10:49:40.538Z,7.57
2023-02-19T10:52:27.170Z,7.68
2023-02-19T10:55:17.272Z,6.63
2023-02-19T10:57:44.699Z,8.40
2023-02-19T11:00:30.581Z,7.18
2023-02-19T11:03:20.202Z,6.35
2023-02-19T11:06:08.309Z,7.07
2023-02-19T11:08:48.755Z,6.68
2023-02-19T11:11:37.073Z,6.53
2023-02-19T11:14:18.186Z,5.45
2023-02-19T11:16:53.183Z,8.18
2023-02-19T11:19:40.158Z,8.55
2023-02-19T11:22:41.953Z,8.60
2023-02-19T11:25:14.738Z,6.85
2023-02-19T11:28:23.007Z,10.05
2023-02-19T11:30:49.948Z,6.85
2023-02-19T11:33:16.941Z,6.03
2023-02-19T11:35:45.694Z,6.13
2023-02-19T11:38:16.697Z,7.10
2023-02-19T11:41:01.837Z,7.40
2023-02-19T11:43:47.883Z,7.65
2023-02-19T11:46:53.422Z,4.90
2023-02-19T11:52:33.211Z,7.35
2023-02-19T11:55:30.969Z,7.50
2023-02-19T11:58:47.072Z,7.85
2023-02-19T12:01:44.546Z,5.28
2023-02-19T12:04:37.853Z,5.78
2023-02-19T12:07:23.482Z,10.48
2023-02-19T12:10:22.723Z,7.45
2023-02-19T12:13:16.228Z,9.45
2023-02-19T12:16:31.425Z,10.13
2023-02-19T12:19:17.063Z,7.78
2023-02-19T12:22:20.308Z,6.28
2023-02-19T12:25:18.637Z,10.45
2023-02-19T12:28:09.858Z,9.38
2023-02-19T12:31:23.691Z,8.85
2023-02-19T12:34:18.187Z,10.85
2023-02-19T12:37:04.747Z,8.40
2023-02-19T12:39:44.968Z,11.38
2023-02-19T12:43:00.787Z,10.73
2023-02-19T12:48:14.812Z,7.45
2023-02-19T12:50:47.679Z,11.00
2023-02-19T12:53:40.391Z,8.70
2023-02-19T12:56:18.888Z,8.18
2023-02-19T12:59:05.243Z,4.38
2023-02-19T13:01:43.887Z,6.20
2023-02-19T13:04:41.521Z,3.95
2023-02-19T13:07:24.060Z,4.43
2023-02-19T13:09:59.234Z,5.68
2023-02-19T13:12:34.305Z,4.43
2023-02-19T13:15:14.743Z,7.03
2023-02-19T13:17:50.636Z,6.18
2023-02-19T13:20:31.494Z,6.53
2023-02-19T13:23:30.170Z,5.57
2023-02-19T13:26:18.219Z,6.75
2023-02-19T13:29:28.302Z,5.75
2023-02-19T13:32:29.307Z,7.15
2023-02-19T13:35:30.346Z,7.43
2023-02-19T13:38:03.159Z,5.63
2023-02-19T13:40:36.296Z,6.10
2023-02-19T13:43:13.845Z,5.55
2023-02-19T13:45:46.123Z,5.78
2023-02-19T13:48:33.040Z,8.75
2023-02-19T13:51:21.647Z,5.85
2023-02-19T13:53:55.962Z,7.00
2023-02-19T13:56:34.845Z,5.93
2023-02-19T13:59:11.034Z,6.25
2023-02-19T14:01:51.440Z,5.93
2023-02-19T14:04:19.902Z,4.63
2023-02-19T14:07:07.110Z,5.15
2023-02-19T14:09:37.242Z,6.65
2023-02-19T14:12:13.736Z,5.63
2023-02-19T14:14:53.227Z,5.47
2023-02-19T14:17:46.578Z,7.38
2023-02-19T14:20:16.494Z,6.93
2023-02-19T14:22:52.741Z,7.03
2023-02-19T14:25:31.792Z,10.02
2023-02-19T14:28:11.507Z,11.30
2023-02-19T14:31:17.830Z,5.15
2023-02-19T14:33:50.437Z,6.50
2023-02-19T14:36:45.144Z,4.78
2023-02-19T14:39:19.923Z,5.03
2023-02-19T14:42:15.639Z,2.33
2023-02-19T14:44:52.314Z,4.22
2023-02-19T14:47:24.556Z,2.63
2023-02-19T14:49:58.210Z,4.82
2023-02-19T14:52:36.702Z,4.50
2023-02-19T14:55:25.882Z,8.75
2023-02-19T14:57:56.761Z,9.82
2023-02-19T15:00:50.052Z,9.52
2023-02-19T15:03:37.819Z,10.93
2023-02-19T15:06:17.901Z,7.97
2023-02-19T15:08:53.449Z,8.05
2023-02-19T15:11:32.274Z,7.57
2023-02-19T15:14:03.987Z,6.97
2023-02-19T15:16:35.680Z,8.00
2023-02-19T15:19:09.299Z,8.15
2023-02-19T15:21:44.650Z,8.32
2023-02-19T15:24:16.514Z,5.15
2023-02-19T15:26:51.256Z,9.18
2023-02-19T15:29:24.950Z,5.30
2023-02-19T15:31:57.141Z,6.10
2023-02-19T15:34:32.228Z,4.15
2023-02-19T15:37:12.754Z,5.82
2023-02-19T15:39:49.673Z,5.95
2023-02-19T15:42:39.994Z,4.75
2023-02-19T15:45:40.521Z,6.47
2023-02-19T15:48:18.638Z,5.90
2023-02-19T15:50:53.514Z,4.00
2023-02-19T15:53:29.623Z,4.03
2023-02-19T15:56:11.142Z,4.85
2023-02-19T15:59:13.360Z,6.95
2023-02-19T16:01:41.017Z,5.32
2023-02-19T16:04:16.441Z,4.20
2023-02-19T16:07:03.723Z,5.75
2023-02-19T16:09:38.147Z,6.75
2023-02-19T16:14:51.099Z,10.90
2023-02-19T16:17:27.814Z,7.82
2023-02-19T16:19:59.632Z,6.25
2023-02-19T16:22:40.795Z,9.57
2023-02-19T16:25:18.330Z,3.00
2023-02-19T16:27:45.499Z,4.32
2023-02-19T16:30:29.668Z,2.70
2023-02-19T16:33:31.944Z,3.40
2023-02-19T16:36:34.293Z,4.30
2023-02-19T16:39:08.427Z,4.13
2023-02-19T16:41:47.548Z,3.75
2023-02-19T16:44:20.710Z,3.92
2023-02-19T16:46:50.102Z,3.90
2023-02-19T16:49:17.154Z,4.57
2023-02-19T16:51:46.641Z,5.63
2023-02-19T16:54:14.164Z,4.40
2023-02-19T16:56:41.292Z,5.53
2023-02-19T16:59:10.654Z,4.63
2023-02-19T17:01:38.237Z,3.65
2023-02-19T17:04:11.074Z,4.05
2023-02-19T17:06:39.475Z,4.43
2023-02-19T17:09:08.689Z,4.82
2023-02-19T17:11:36.557Z,6.72
2023-02-19T17:14:03.974Z,4.40
2023-02-19T17:16:39.837Z,4.57
2023-02-19T17:19:14.978Z,4.50
2023-02-19T17:21:42.588Z,3.42
2023-02-19T17:24:09.609Z,5.45
2023-02-19T17:26:37.013Z,4.57
2023-02-19T17:29:07.110Z,3.90
2023-02-19T17:31:34.375Z,4.70
2023-02-19T17:34:01.464Z,5.05
2023-02-19T17:36:32.170Z,4.30
2023-02-19T17:39:04.086Z,5.15
2023-02-19T17:41:31.172Z,5.22
2023-02-19T17:43:58.134Z,5.03
2023-02-19T17:46:27.158Z,5.80
2023-02-19T17:48:54.733Z,4.38
2023-02-19T17:51:22.378Z,5.65
2023-02-19T17:53:49.777Z,7.15
2023-02-19T17:56:26.586Z,6.40
2023-02-19T17:58:55.825Z,5.60
2023-02-19T18:01:23.431Z,6.95
2023-02-19T18:03:50.810Z,7.20
2023-02-19T18:06:18.087Z,6.82
2023-02-19T18:08:53.226Z,6.65
2023-02-19T18:11:22.887Z,7.32
2023-02-19T18:13:52.144Z,5.93
2023-02-19T18:16:22.013Z,6.68
2023-02-19T18:18:49.958Z,7.22
2023-02-19T18:21:17.173Z,7.60
2023-02-19T18:23:46.031Z,6.88
2023-02-19T18:26:13.783Z,8.27
2023-02-19T18:28:41.034Z,7.40
2023-02-19T18:31:08.339Z,7.88
2023-02-19T18:33:35.604Z,9.18
2023-02-19T18:36:04.330Z,7.75
2023-02-19T18:38:31.291Z,8.30
2023-02-19T18:41:10.513Z,7.60
2023-02-19T18:43:37.524Z,7.70
2023-02-19T18:46:09.356Z,7.82
2023-02-19T18:48:37.199Z,7.20
2023-02-19T18:51:04.667Z,7.10
2023-02-19T18:53:31.598Z,6.68
2023-02-19T18:56:00.279Z,6.60
2023-02-19T18:58:28.477Z,5.80
2023-02-19T19:00:55.532Z,7.00
2023-02-19T19:03:22.514Z,7.10
2023-02-19T19:05:49.475Z,7.10
2023-02-19T19:08:16.538Z,6.72
2023-02-19T19:10:43.565Z,5.95
2023-02-19T19:13:10.554Z,5.97
2023-02-19T19:15:39.629Z,4.18
2023-02-19T19:18:07.572Z,3.78
2023-02-19T19:20:34.638Z,3.60
2023-02-19T19:23:01.658Z,4.85
2023-02-19T19:25:28.632Z,4.35
2023-02-19T19:27:56.592Z,5.00
2023-02-19T19:30:23.610Z,5.05
2023-02-19T19:32:52.472Z,5.18
2023-02-19T19:35:21.423Z,5.00
2023-02-19T19:37:49.257Z,4.75
2023-02-19T19:40:18.141Z,3.85
2023-02-19T19:42:45.526Z,3.60
2023-02-19T19:45:16.263Z,5.57
2023-02-19T19:47:43.240Z,3.30
2023-02-19T19:50:13.140Z,5.38
2023-02-19T19:52:40.356Z,9.45
2023-02-19T19:55:07.733Z,5.32
2023-02-19T19:57:34.652Z,7.13
2023-02-19T20:00:02.323Z,7.60
2023-02-19T20:02:41.668Z,11.32
2023-02-19T20:05:08.826Z,9.73
2023-02-19T20:07:36.194Z,8.38
2023-02-19T20:10:03.490Z,7.65
2023-02-19T20:12:30.478Z,6.45
2023-02-19T20:14:57.416Z,6.57
2023-02-19T20:17:27.351Z,8.00
2023-02-19T20:19:54.588Z,5.70
2023-02-19T20:22:21.573Z,5.32
2023-02-19T20:24:54.216Z,5.00
2023-02-19T20:27:23.258Z,5.70
2023-02-19T20:29:50.621Z,6.68
2023-02-19T20:32:20.606Z,7.95
2023-02-19T20:34:48.160Z,7.70
2023-02-19T20:37:15.740Z,11.73
2023-02-19T20:39:42.775Z,9.55
2023-02-19T20:42:09.793Z,22.80
2023-02-19T20:44:36.842Z,19.33
2023-02-19T20:47:04.322Z,18.13
2023-02-19T20:49:32.525Z,21.58
2023-02-19T20:52:06.399Z,11.95
2023-02-19T20:54:35.319Z,10.65
2023-02-19T20:57:05.541Z,20.17
2023-02-19T20:59:38.647Z,21.67
2023-02-19T21:02:17.438Z,16.88
2023-02-19T21:04:44.458Z,9.32
2023-02-19T21:07:11.465Z,14.52
2023-02-19T21:09:38.485Z,13.15
2023-02-19T21:12:05.769Z,8.13
2023-02-19T21:14:32.896Z,9.73
2023-02-19T21:17:00.707Z,11.65
2023-02-19T21:19:27.690Z,12.18
2023-02-19T21:21:54.713Z,11.32
2023-02-19T21:24:22.175Z,8.75
2023-02-19T21:26:49.297Z,13.73
2023-02-19T21:29:20.476Z,10.27
2023-02-19T21:31:55.013Z,13.93
2023-02-19T21:36:55.754Z,12.65
2023-02-19T21:39:25.713Z,12.68
2023-02-19T21:41:53.000Z,7.70
2023-02-19T21:44:21.231Z,10.02
2023-02-19T21:46:48.765Z,7.63
2023-02-19T21:49:16.022Z,5.55
2023-02-19T21:51:45.597Z,11.13
2023-02-19T21:54:24.669Z,5.22
2023-02-19T21:56:53.264Z,5.53
2023-02-19T21:59:22.642Z,5.47
2023-02-19T22:01:50.552Z,7.05
2023-02-19T22:04:20.822Z,4.53
2023-02-19T22:06:47.885Z,12.77
2023-02-19T22:09:15.675Z,7.95
2023-02-19T22:11:42.942Z,9.07
2023-02-19T22:14:10.059Z,13.93
2023-02-19T22:16:37.197Z,8.35
2023-02-19T22:19:04.795Z,6.78
2023-02-19T22:21:32.603Z,9.15
2023-02-19T22:24:02.663Z,8.18
2023-02-19T22:26:35.291Z,12.77
2023-02-19T22:29:07.160Z,8.98
2023-02-19T22:31:35.897Z,8.23
2023-02-19T22:34:04.057Z,7.90
2023-02-19T22:36:33.840Z,12.32
2023-02-19T22:39:01.660Z,9.52
2023-02-19T22:41:29.186Z,11.35
2023-02-19T22:43:58.498Z,11.50
2023-02-19T22:46:30.189Z,11.45
2023-02-19T22:48:58.475Z,11.18
2023-02-19T22:51:25.974Z,11.98
2023-02-19T22:53:56.230Z,12.05
2023-02-19T22:56:27.066Z,10.55
2023-02-19T22:58:58.023Z,13.02
2023-02-19T23:01:25.796Z,11.85
2023-02-19T23:03:59.040Z,13.63
2023-02-19T23:06:33.240Z,13.65
2023-02-19T23:09:10.552Z,15.90
2023-02-19T23:11:39.144Z,13.02
2023-02-19T23:14:07.815Z,12.20
2023-02-19T23:16:38.032Z,13.80
2023-02-19T23:19:12.809Z,16.20
2023-02-19T23:21:43.069Z,15.90
2023-02-19T23:24:13.400Z,15.07
2023-02-19T23:26:52.196Z,16.08
2023-02-19T23:29:25.684Z,18.42
2023-02-19T23:31:54.480Z,20.42
2023-02-19T23:34:22.108Z,19.23
2023-02-19T23:36:51.135Z,17.67
2023-02-19T23:39:21.492Z,19.95
2023-02-19T23:41:57.331Z,16.60
2023-02-19T23:44:25.579Z,21.17
2023-02-19T23:46:52.661Z,19.75
2023-02-19T23:49:20.353Z,22.55
2023-02-19T23:51:47.796Z,18.38
2023-02-19T23:54:15.686Z,21.30
2023-02-19T23:56:43.008Z,21.08
2023-02-19T23:59:10.071Z,21.27
